createdAt,value
2019-02-11T05:02:06.671Z,0
2019-02-11T05:05:37.504Z,0
2019-02-11T05:09:07.366Z,0
2019-02-11T05:12:37.216Z,0
2019-02-11T05:16:07.061Z,0
2019-02-11T05:19:36.921Z,0
2019-02-11T05:23:06.767Z,0
2019-02-11T05:26:36.608Z,0
2019-02-11T05:30:06.466Z,0
2019-02-11T05:33:36.329Z,0
2019-02-11T05:37:06.173Z,0
2019-02-11T05:40:36.009Z,0
2019-02-11T05:44:06.853Z,0
2019-02-11T05:47:36.705Z,0
2019-02-11T05:51:06.551Z,0
2019-02-11T05:54:36.400Z,0
2019-02-11T05:58:06.263Z,0
2019-02-11T06:01:36.145Z,0
2019-02-11T06:05:05.980Z,0
2019-02-11T06:08:35.839Z,1
2019-02-11T06:12:05.686Z,2
2019-02-11T06:15:35.540Z,3
2019-02-11T06:19:05.394Z,4
2019-02-11T06:22:35.255Z,8
2019-02-11T06:26:05.094Z,12
2019-02-11T06:29:34.950Z,14
2019-02-11T06:33:04.798Z,28
2019-02-11T06:36:34.880Z,44
2019-02-11T06:40:04.713Z,46
2019-02-11T06:43:34.570Z,59
2019-02-11T06:47:04.426Z,65
2019-02-11T06:50:34.271Z,83
2019-02-11T06:54:04.137Z,104
2019-02-11T06:57:33.991Z,131
2019-02-11T07:01:03.821Z,131
2019-02-11T07:04:34.669Z,140
2019-02-11T07:08:04.532Z,188
2019-02-11T07:11:34.368Z,187
2019-02-11T07:15:04.228Z,279
2019-02-11T07:18:35.621Z,229
2019-02-11T07:22:04.914Z,421
2019-02-11T07:25:34.885Z,317
2019-02-11T07:29:04.744Z,537
2019-02-11T07:32:34.605Z,671
2019-02-11T07:36:04.452Z,471
2019-02-11T07:39:34.321Z,444
2019-02-11T07:43:04.179Z,538
2019-02-11T07:46:34.021Z,602
2019-02-11T07:50:03.877Z,727
2019-02-11T07:53:33.747Z,531
2019-02-11T07:57:03.620Z,578
2019-02-11T08:00:33.482Z,1244
2019-02-11T08:04:03.474Z,1492
2019-02-11T08:07:34.305Z,1715
2019-02-11T08:11:04.163Z,2414
2019-02-11T08:14:34.024Z,2624
2019-02-11T08:18:03.884Z,2872
2019-02-11T08:21:33.731Z,2742
2019-02-11T08:25:03.663Z,3502
2019-02-11T08:28:33.525Z,2686
2019-02-11T08:32:03.367Z,3124
2019-02-11T08:35:33.229Z,2650
2019-02-11T08:39:04.074Z,1989
2019-02-11T08:42:33.959Z,1667
2019-02-11T08:46:04.254Z,1611
2019-02-11T08:49:33.730Z,1866
2019-02-11T08:53:05.375Z,1873
2019-02-11T08:56:35.737Z,1969
2019-02-11T09:00:06.094Z,2401
2019-02-11T09:03:36.541Z,2457
2019-02-11T09:07:07.816Z,3068
2019-02-11T09:10:38.184Z,3471
2019-02-11T09:14:09.655Z,3169
2019-02-11T09:17:39.930Z,2691
2019-02-11T09:21:11.168Z,2611
2019-02-11T09:24:43.144Z,2642
2019-02-11T09:28:13.504Z,2908
2019-02-11T09:31:44.034Z,3531
2019-02-11T09:35:17.419Z,3619
2019-02-11T09:38:48.676Z,3441
2019-02-11T09:42:20.022Z,3574
2019-02-11T09:45:50.331Z,3504
2019-02-11T09:49:21.353Z,3141
2019-02-11T09:52:52.479Z,2738
2019-02-11T09:56:22.925Z,3378
2019-02-11T09:59:53.312Z,2396
2019-02-11T10:03:23.625Z,3327
2019-02-11T10:06:53.935Z,2569
2019-02-11T10:10:25.354Z,3296
2019-02-11T10:13:55.708Z,3539
2019-02-11T10:17:29.924Z,2973
2019-02-11T10:21:00.404Z,3417
2019-02-11T10:24:30.835Z,3139
2019-02-11T10:28:01.504Z,3050
2019-02-11T10:31:33.966Z,3417
2019-02-11T10:35:04.324Z,3689
2019-02-11T10:38:37.630Z,4041
2019-02-11T10:42:07.787Z,2598
2019-02-11T10:45:38.975Z,3112
2019-02-11T10:49:09.493Z,2849
2019-02-11T10:52:39.816Z,4184
2019-02-11T10:56:10.221Z,4954
2019-02-11T10:59:42.029Z,4103
2019-02-11T11:03:14.284Z,3013
2019-02-11T11:06:44.582Z,2576
2019-02-11T11:10:15.467Z,2661
2019-02-11T11:13:45.943Z,3048
2019-02-11T11:17:16.249Z,2767
2019-02-11T11:20:46.616Z,2729
2019-02-11T11:24:17.060Z,2945
2019-02-11T11:27:47.453Z,2569
2019-02-11T11:31:17.790Z,2644
2019-02-11T11:34:48.188Z,2880
2019-02-11T11:38:18.542Z,2704
2019-02-11T11:41:48.858Z,2580
2019-02-11T11:45:19.243Z,2565
2019-02-11T11:48:49.623Z,2578
2019-02-11T11:52:19.979Z,2393
2019-02-11T11:55:50.414Z,2190
2019-02-11T11:59:20.814Z,2009
2019-02-11T12:03:03.836Z,2569
2019-02-11T12:06:27.425Z,3430
2019-02-11T12:09:57.843Z,6697
2019-02-11T12:13:27.934Z,7715
2019-02-11T12:17:02.835Z,8486
2019-02-11T12:20:34.322Z,6299
2019-02-11T12:24:03.530Z,6276
2019-02-11T12:27:33.392Z,5022
2019-02-11T12:31:03.254Z,3339
2019-02-11T12:34:33.118Z,2691
2019-02-11T12:38:03.025Z,2139
2019-02-11T12:41:32.904Z,1825
2019-02-11T12:45:02.756Z,2050
2019-02-11T12:48:33.600Z,1775
2019-02-11T12:52:03.468Z,1948
2019-02-11T12:55:33.344Z,2219
2019-02-11T12:59:03.208Z,1895
2019-02-11T13:02:33.076Z,1893
2019-02-11T13:06:03.958Z,1969
2019-02-11T13:09:33.829Z,1884
2019-02-11T13:13:06.525Z,1511
2019-02-11T13:16:35.546Z,1838
2019-02-11T13:20:10.651Z,2053
2019-02-11T13:23:39.303Z,1537
2019-02-11T13:27:09.220Z,2066
2019-02-11T13:30:40.782Z,1670
2019-02-11T13:34:12.551Z,2029
2019-02-11T13:37:43.091Z,2368
2019-02-11T13:41:14.943Z,1917
2019-02-11T13:44:46.776Z,2133
2019-02-11T13:48:16.661Z,2091
2019-02-11T13:51:47.299Z,2726
2019-02-11T13:55:17.506Z,2586
2019-02-11T13:58:51.782Z,2296
2019-02-11T14:02:18.431Z,1897
2019-02-11T14:05:49.508Z,2417
2019-02-11T14:09:19.597Z,2450
2019-02-11T14:12:50.702Z,2492
2019-02-11T14:16:21.116Z,2457
2019-02-11T14:19:50.983Z,2529
2019-02-11T14:23:20.845Z,3397
2019-02-11T14:26:50.754Z,3589
2019-02-11T14:30:20.748Z,3220
2019-02-11T14:33:51.437Z,4659
2019-02-11T14:37:21.342Z,8355
2019-02-11T14:40:51.388Z,6778
2019-02-11T14:44:21.290Z,5100
2019-02-11T14:47:51.155Z,4166
2019-02-11T14:51:21.072Z,5176
2019-02-11T14:54:50.893Z,4000
2019-02-11T14:58:20.742Z,3497
2019-02-11T15:01:50.641Z,3309
2019-02-11T15:05:20.552Z,3033
2019-02-11T15:08:51.395Z,2741
2019-02-11T15:12:21.361Z,2341
2019-02-11T15:15:51.227Z,2092
2019-02-11T15:19:21.131Z,1846
2019-02-11T15:22:51.072Z,1668
2019-02-11T15:26:21.031Z,1507
2019-02-11T15:29:21.298Z,1392
2019-02-11T15:32:49.372Z,1296
2019-02-11T15:36:17.258Z,1159
2019-02-11T15:39:46.222Z,1032
2019-02-11T15:43:14.124Z,892
2019-02-11T15:46:42.005Z,759
2019-02-11T15:50:10.075Z,641
2019-02-11T15:53:37.963Z,533
2019-02-11T15:57:07.365Z,436
2019-02-11T16:00:35.230Z,347
2019-02-11T16:04:16.761Z,264
2019-02-11T16:07:45.663Z,197
2019-02-11T16:11:14.579Z,143
2019-02-11T16:14:42.453Z,99
2019-02-11T16:18:10.358Z,68
2019-02-11T16:21:38.256Z,43
2019-02-11T16:25:06.158Z,27
2019-02-11T16:28:34.023Z,17
2019-02-11T16:32:02.932Z,10
2019-02-11T16:35:30.867Z,6
2019-02-11T16:38:58.817Z,3
2019-02-11T16:42:26.713Z,1
2019-02-11T16:45:55.388Z,1
2019-02-11T16:49:23.288Z,1
2019-02-11T16:52:52.170Z,0
2019-02-11T16:56:20.065Z,0
2019-02-11T16:59:47.969Z,0
2019-02-11T17:03:16.840Z,0
2019-02-11T17:06:44.796Z,0
2019-02-11T17:10:12.674Z,0
2019-02-11T17:13:40.623Z,0
2019-02-11T17:17:08.634Z,0
2019-02-11T17:20:36.574Z,0
2019-02-11T17:24:04.500Z,0
2019-02-11T17:27:33.342Z,0
2019-02-11T17:31:02.202Z,0
2019-02-11T17:34:30.105Z,0
2019-02-11T17:37:58.345Z,0
2019-02-11T17:41:26.283Z,0
2019-02-11T17:44:54.206Z,0
2019-02-11T17:48:22.086Z,0
2019-02-11T17:51:51.007Z,0
2019-02-11T17:55:19.005Z,0
2019-02-11T17:58:46.910Z,0
2019-02-11T18:02:14.842Z,0
2019-02-11T18:05:42.730Z,0
2019-02-11T18:09:10.600Z,0
2019-02-11T18:12:38.565Z,0
2019-02-11T18:16:06.489Z,0
2019-02-11T18:19:34.394Z,0
2019-02-11T18:23:02.335Z,0
2019-02-11T18:26:30.260Z,0
2019-02-11T18:29:59.163Z,0
2019-02-11T18:33:27.093Z,0
2019-02-11T18:36:54.995Z,0
2019-02-11T18:40:22.888Z,0
2019-02-11T18:43:50.797Z,0
2019-02-11T18:47:18.694Z,0
2019-02-11T18:50:46.596Z,0
2019-02-11T18:54:14.468Z,0
2019-02-11T18:57:42.408Z,0
2019-02-11T19:01:10.307Z,0
2019-02-11T19:04:38.198Z,0
2019-02-11T19:08:07.099Z,0
2019-02-11T19:11:35.008Z,0
2019-02-11T19:15:03.872Z,0
2019-02-11T19:18:31.770Z,0
2019-02-11T19:21:59.705Z,0
2019-02-11T19:25:27.608Z,0
2019-02-11T19:28:55.467Z,0
2019-02-11T19:32:23.337Z,0
2019-02-11T19:35:51.232Z,0
2019-02-11T19:39:19.128Z,0
2019-02-11T19:42:47.012Z,0
2019-02-11T19:46:14.910Z,0
2019-02-11T19:49:42.876Z,0
2019-02-11T19:53:13.909Z,0
2019-02-11T19:56:42.869Z,0
2019-02-11T20:00:11.927Z,0
2019-02-11T20:03:40.051Z,0
2019-02-11T20:07:08.048Z,0
2019-02-11T20:10:36.033Z,0
2019-02-11T20:14:04.036Z,0
2019-02-11T20:17:33.027Z,0
2019-02-11T20:21:00.940Z,0
2019-02-11T20:24:28.950Z,0
2019-02-11T20:27:56.888Z,0
2019-02-11T20:31:26.057Z,0
2019-02-11T20:34:53.992Z,0
2019-02-11T20:38:22.720Z,0
2019-02-11T20:41:50.728Z,0
2019-02-11T20:45:19.005Z,0
2019-02-11T20:48:46.967Z,0
2019-02-11T20:52:14.962Z,0
2019-02-11T20:55:45.015Z,0
2019-02-11T20:59:12.872Z,0
2019-02-11T21:02:41.925Z,0
2019-02-11T21:06:10.915Z,0
2019-02-11T21:09:39.616Z,0
2019-02-11T21:13:07.667Z,0
2019-02-11T21:16:37.147Z,0
2019-02-11T21:20:05.078Z,0
2019-02-11T21:23:33.159Z,0
2019-02-11T21:27:01.117Z,0
2019-02-11T21:30:29.172Z,0
2019-02-11T21:33:58.133Z,0
2019-02-11T21:37:26.734Z,0
2019-02-11T21:40:54.782Z,0
2019-02-11T21:44:23.742Z,0
2019-02-11T21:47:53.155Z,0
2019-02-11T21:51:21.251Z,0
2019-02-11T21:54:49.254Z,0
2019-02-11T21:58:17.232Z,0
2019-02-11T22:01:45.501Z,0
2019-02-11T22:05:13.502Z,0
2019-02-11T22:08:42.404Z,0
2019-02-11T22:12:10.346Z,0
2019-02-11T22:15:38.491Z,0
2019-02-11T22:19:06.400Z,0
2019-02-11T22:22:35.361Z,0
2019-02-11T22:26:04.301Z,0
2019-02-11T22:29:32.276Z,0
2019-02-11T22:33:00.243Z,0
2019-02-11T22:36:28.147Z,0
2019-02-11T22:39:56.178Z,0
2019-02-11T22:43:24.051Z,0
2019-02-11T22:46:51.962Z,0
2019-02-11T22:50:19.871Z,0
2019-02-11T22:53:47.813Z,0
2019-02-11T22:57:15.767Z,0
